Time;durP1;ratioP1;P1;durP2;ratioP2;P2;SDS_P1;SDS_P2;PMS_P1;PMS_P2;Temp;Humidity;BMP_temperature;BMP_pressure;BME280_temperature;BME280_humidity;BME280_pressure;Samples;Min_cycle;Max_cycle;Signal;HPM_P1;HPM_P2
2022/10/04 00:02:15;;;;;;;;;;;;;;;;;;5013803;28;8441;-85
2022/10/04 00:04:44;;;;;;;;;;;;;;;;;;5014023;28;8740;-86
2022/10/04 00:07:10;;;;;;;;;;;;;;;;;;5013360;28;8795;-85
2022/10/04 00:09:47;;;;;;;;;;;;;;;;;;5015079;28;8421;-85
2022/10/04 00:12:23;;;;;;;;;;;;;;;;;;5000455;28;8460;-86
2022/10/04 00:14:51;;;;;;;;;;;;;;;;;;5001740;28;8753;-85
2022/10/04 00:17:22;;;;;;;;;;;;;;;;;;5000989;28;8865;-85
2022/10/04 00:19:49;;;;;;;;;;;;;;;;;;5002089;28;7191;-86
2022/10/04 00:22:17;;;;;;;;;;;;;;;;;;5001328;28;8394;-86
2022/10/04 00:25:01;;;;;;;;;;;;;;;;;;5001090;28;7053;-86
2022/10/04 00:27:27;;;;;;;;;;;;;;;;;;5017587;28;8409;-85
2022/10/04 00:30:01;;;;;;;;;;;;;;;;;;5001644;28;8329;-86
2022/10/04 00:32:30;;;;;;;;;;;;;;;;;;5000669;28;9657;-85
2022/10/04 00:34:58;;;;;;;;;;;;;;;;;;5000163;28;8633;-85
2022/10/04 00:37:25;;;;;;;;;;;;;;;;;;5000333;28;8414;-86
2022/10/04 00:39:57;;;;;;;;;;;;;;;;;;5000558;28;7168;-86
2022/10/04 00:42:31;;;;;;;;;;;;;;;;;;5000380;28;7075;-86
2022/10/04 00:45:10;;;;;;;;;;;;;;;;;;4999734;28;8419;-85
2022/10/04 00:47:55;;;;;;;;;;;;;;;;;;5000265;28;8420;-83
2022/10/04 00:50:35;;;;;;;;;;;;;;;;;;4999417;28;8403;-86
2022/10/04 00:53:10;;;;;;;;;;;;;;;;;;4999882;28;7058;-84
2022/10/04 00:55:42;;;;;;;;;;;;;;;;;;5000356;28;8625;-84
2022/10/04 00:58:15;;;;;;;;;;;;;;;;;;5000626;28;7064;-85
2022/10/04 01:00:43;;;;;;;;;;;;;;;;;;5000544;28;8525;-86
2022/10/04 01:03:17;;;;;;;;;;;;;;;;;;5000313;28;8327;-85
2022/10/04 01:05:47;;;;;;;;;;;;;;;;;;5000266;28;7795;-85
2022/10/04 01:08:22;;;;;;;;;;;;;;;;;;5000117;28;8419;-85
2022/10/04 01:10:55;;;;;;;;;;;;;;;;;;5000029;28;7189;-86
2022/10/04 01:13:30;;;;;;;;;;;;;;;;;;5000235;28;8788;-85
2022/10/04 01:15:56;;;;;;;;;;;;;;;;;;5000632;28;7257;-85
2022/10/04 01:18:21;;;;;;;;;;;;;;;;;;4999919;28;7011;-85
2022/10/04 01:20:47;;;;;;;;;;;;;;;;;;4999978;28;8346;-85
2022/10/04 01:23:30;;;;;;;;;;;;;;;;;;4999776;28;8322;-85
2022/10/04 01:25:55;;;;;;;;;;;;;;;;;;5000328;28;7050;-85
2022/10/04 01:28:21;;;;;;;;;;;;;;;;;;5015931;28;8485;-84
2022/10/04 01:30:47;;;;;;;;;;;;;;;;;;4999510;28;8436;-86
2022/10/04 01:33:13;;;;;;;;;;;;;;;;;;5000411;28;8698;-85
2022/10/04 01:35:39;;;;;;;;;;;;;;;;;;5016618;28;8441;-86
2022/10/04 01:38:06;;;;;;;;;;;;;;;;;;5000260;28;8499;-84
2022/10/04 01:40:42;;;;;;;;;;;;;;;;;;5000007;28;8596;-85
2022/10/04 01:43:13;;;;;;;;;;;;;;;;;;4999886;28;7079;-85
2022/10/04 01:45:45;;;;;;;;;;;;;;;;;;5000049;28;8439;-86
2022/10/04 01:48:14;;;;;;;;;;;;;;;;;;4999619;28;7212;-86
2022/10/04 01:50:50;;;;;;;;;;;;;;;;;;4999826;28;8432;-85
2022/10/04 01:53:25;;;;;;;;;;;;;;;;;;5000095;28;7055;-85
2022/10/04 01:55:54;;;;;;;;;;;;;;;;;;4999925;28;8570;-85
2022/10/04 01:58:24;;;;;;;;;;;;;;;;;;4999739;28;7376;-85
2022/10/04 02:01:06;;;;;;;;;;;;;;;;;;4999335;28;7008;-85
2022/10/04 02:03:35;;;;;;;;;;;;;;;;;;4999419;28;8429;-85
2022/10/04 02:06:04;;;;;;;;;;;;;;;;;;4999500;28;8411;-84
2022/10/04 02:08:34;;;;;;;;;;;;;;;;;;4999331;28;8437;-85
2022/10/04 02:11:02;;;;;;;;;;;;;;;;;;4998861;28;8418;-85
2022/10/04 02:13:33;;;;;;;;;;;;;;;;;;4998945;28;8443;-85
2022/10/04 02:16:01;;;;;;;;;;;;;;;;;;4999160;28;8455;-85
2022/10/04 02:18:30;;;;;;;;;;;;;;;;;;4998762;28;7212;-84
2022/10/04 02:20:57;;;;;;;;;;;;;;;;;;4998901;28;7589;-84
2022/10/04 02:23:24;;;;;;;;;;;;;;;;;;4999136;28;8434;-85
2022/10/04 02:25:50;;;;;;;;;;;;;;;;;;4998917;28;9431;-85
2022/10/04 02:28:17;;;;;;;;;;;;;;;;;;4998712;28;7350;-87
2022/10/04 02:32:56;;;;;;;;;;;;;;;;;;4998815;28;7024;-85
2022/10/04 02:33:37;;;;;;;;;;;;;;;;;;5015822;28;7226;-85
2022/10/04 02:36:04;;;;;;;;;;;;;;;;;;4999135;28;8440;-85
2022/10/04 02:38:36;;;;;;;;;;;;;;;;;;4998670;28;7248;-87
2022/10/04 02:41:06;;;;;;;;;;;;;;;;;;4999718;28;8338;-85
2022/10/04 02:43:32;;;;;;;;;;;;;;;;;;4998365;28;7337;-84
2022/10/04 02:46:01;;;;;;;;;;;;;;;;;;4998684;28;8685;-85
2022/10/04 02:48:40;;;;;;;;;;;;;;;;;;4998611;28;7168;-86
2022/10/04 02:51:17;;;;;;;;;;;;;;;;;;4998180;28;8410;-83
2022/10/04 02:53:56;;;;;;;;;;;;;;;;;;4998672;28;8353;-86
2022/10/04 02:56:24;;;;;;;;;;;;;;;;;;4999025;28;9551;-85
2022/10/04 02:58:51;;;;;;;;;;;;;;;;;;4998493;28;8408;-85
2022/10/04 03:01:28;;;;;;;;;;;;;;;;;;4998658;28;7242;-85
2022/10/04 03:03:55;;;;;;;;;;;;;;;;;;4998743;28;8716;-85
2022/10/04 03:06:27;;;;;;;;;;;;;;;;;;4997967;28;8526;-84
2022/10/04 03:08:57;;;;;;;;;;;;;;;;;;4998387;28;8369;-82
2022/10/04 03:11:26;;;;;;;;;;;;;;;;;;4998567;28;7166;-84
2022/10/04 03:13:55;;;;;;;;;;;;;;;;;;4998097;28;7260;-84
2022/10/04 03:16:22;;;;;;;;;;;;;;;;;;4998082;28;8498;-83
2022/10/04 03:18:49;;;;;;;;;;;;;;;;;;4998103;28;7262;-82
2022/10/04 03:21:17;;;;;;;;;;;;;;;;;;4997960;28;8654;-82
2022/10/04 03:23:45;;;;;;;;;;;;;;;;;;4998370;28;8461;-82
2022/10/04 03:26:29;;;;;;;;;;;;;;;;;;4998027;28;7328;-83
2022/10/04 03:28:57;;;;;;;;;;;;;;;;;;5014610;28;8496;-83
2022/10/04 03:31:25;;;;;;;;;;;;;;;;;;4997797;28;8461;-83
2022/10/04 03:33:53;;;;;;;;;;;;;;;;;;4998246;28;7185;-83
2022/10/04 03:36:20;;;;;;;;;;;;;;;;;;4998173;28;8442;-83
2022/10/04 03:38:47;;;;;;;;;;;;;;;;;;4997688;28;7166;-84
2022/10/04 03:41:14;;;;;;;;;;;;;;;;;;4997966;28;8799;-82
2022/10/04 03:43:44;;;;;;;;;;;;;;;;;;4998098;28;7165;-83
2022/10/04 03:46:12;;;;;;;;;;;;;;;;;;4998116;28;8581;-83
2022/10/04 03:48:50;;;;;;;;;;;;;;;;;;4997990;28;8621;-83
2022/10/04 03:51:18;;;;;;;;;;;;;;;;;;4997345;28;8300;-84
2022/10/04 03:53:47;;;;;;;;;;;;;;;;;;4997996;28;8378;-83
2022/10/04 03:56:19;;;;;;;;;;;;;;;;;;4997773;28;7413;-82
2022/10/04 03:58:46;;;;;;;;;;;;;;;;;;4997835;28;8334;-83
2022/10/04 04:01:18;;;;;;;;;;;;;;;;;;4997743;28;8625;-84
2022/10/04 04:03:49;;;;;;;;;;;;;;;;;;4998469;28;8416;-84
2022/10/04 04:06:18;;;;;;;;;;;;;;;;;;4997692;28;8505;-83
2022/10/04 04:08:47;;;;;;;;;;;;;;;;;;4997181;28;8747;-82
2022/10/04 04:11:26;;;;;;;;;;;;;;;;;;4997452;28;8487;-83
2022/10/04 04:13:58;;;;;;;;;;;;;;;;;;4997833;28;7056;-84
2022/10/04 04:16:27;;;;;;;;;;;;;;;;;;4997423;28;7442;-83
2022/10/04 04:18:57;;;;;;;;;;;;;;;;;;4997185;28;7126;-84
2022/10/04 04:21:24;;;;;;;;;;;;;;;;;;4997055;28;7260;-83
2022/10/04 04:23:55;;;;;;;;;;;;;;;;;;4997388;28;8504;-84
2022/10/04 04:26:39;;;;;;;;;;;;;;;;;;4997429;28;7185;-83
2022/10/04 04:29:11;;;;;;;;;;;;;;;;;;4997775;28;7167;-83
2022/10/04 04:31:42;;;;;;;;;;;;;;;;;;4996899;28;7063;-83
2022/10/04 04:34:23;;;;;;;;;;;;;;;;;;4997099;28;8369;-82
2022/10/04 04:36:51;;;;;;;;;;;;;;;;;;4997861;28;7068;-84
2022/10/04 04:39:42;;;;;;;;;;;;;;;;;;4997080;28;7172;-83
2022/10/04 04:42:23;;;;;;;;;;;;;;;;;;5000504;28;7274;-84
2022/10/04 04:44:48;;;;;;;;;;;;;;;;;;5000879;28;8306;-85
2022/10/04 04:47:34;;;;;;;;;;;;;;;;;;5000935;28;7020;-83
2022/10/04 04:50:17;;;;;;;;;;;;;;;;;;5009516;28;7072;-83
2022/10/04 04:52:55;;;;;;;;;;;;;;;;;;5000519;28;8774;-82
2022/10/04 04:55:24;;;;;;;;;;;;;;;;;;5000851;28;8485;-83
2022/10/04 04:57:54;;;;;;;;;;;;;;;;;;5001012;28;7172;-83
2022/10/04 05:00:22;;;;;;;;;;;;;;;;;;5000617;28;7038;-84
2022/10/04 05:02:56;;;;;;;;;;;;;;;;;;5000302;28;7442;-83
2022/10/04 05:05:26;;;;;;;;;;;;;;;;;;5000391;28;7029;-84
2022/10/04 05:08:11;;;;;;;;;;;;;;;;;;5000253;28;7181;-84
2022/10/04 05:10:39;;;;;;;;;;;;;;;;;;5018106;28;7168;-84
2022/10/04 05:13:07;;;;;;;;;;;;;;;;;;5001003;28;7046;-84
2022/10/04 05:15:43;;;;;;;;;;;;;;;;;;5000362;28;8569;-84
2022/10/04 05:18:23;;;;;;;;;;;;;;;;;;5000755;28;8756;-83
2022/10/04 05:20:52;;;;;;;;;;;;;;;;;;5000372;28;7196;-83
2022/10/04 05:23:18;;;;;;;;;;;;;;;;;;4999926;28;8361;-84
2022/10/04 05:25:44;;;;;;;;;;;;;;;;;;5000089;28;8433;-83
2022/10/04 05:28:12;;;;;;;;;;;;;;;;;;5000837;28;7047;-83
2022/10/04 05:30:38;;;;;;;;;;;;;;;;;;4999700;28;7170;-83
2022/10/04 05:33:06;;;;;;;;;;;;;;;;;;5000304;28;8450;-84
2022/10/04 05:35:51;;;;;;;;;;;;;;;;;;4999957;28;8434;-83
2022/10/04 05:38:32;;;;;;;;;;;;;;;;;;5000066;28;8436;-83
2022/10/04 05:40:57;;;;;;;;;;;;;;;;;;4999654;28;8639;-83
2022/10/04 05:43:28;;;;;;;;;;;;;;;;;;4999524;28;8721;-84
2022/10/04 05:46:12;;;;;;;;;;;;;;;;;;4999616;28;8435;-84
2022/10/04 05:48:42;;;;;;;;;;;;;;;;;;5016085;28;8475;-84
2022/10/04 05:51:25;;;;;;;;;;;;;;;;;;4999240;28;7173;-83
2022/10/04 05:53:51;;;;;;;;;;;;;;;;;;4998959;28;8745;-85
2022/10/04 05:56:41;;;;;;;;;;;;;;;;;;4999818;28;8284;-85
2022/10/04 05:59:19;;;;;;;;;;;;;;;;;;4999286;28;7107;-83
2022/10/04 06:01:44;;;;;;;;;;;;;;;;;;4999926;28;8414;-85
2022/10/04 06:04:19;;;;;;;;;;;;;;;;;;4999287;28;7178;-85
2022/10/04 06:06:54;;;;;;;;;;;;;;;;;;4999536;28;8429;-84
2022/10/04 06:09:19;;;;;;;;;;;;;;;;;;4999521;28;8415;-83
2022/10/04 06:11:51;;;;;;;;;;;;;;;;;;4995880;28;8324;-84
2022/10/04 06:14:17;;;;;;;;;;;;;;;;;;5012623;28;8576;-83
2022/10/04 06:17:13;;;;;;;;;;;;;;;;;;5012779;28;8405;-85
2022/10/04 06:19:57;;;;;;;;;;;;;;;;;;4992631;28;7193;-85
2022/10/04 06:22:25;;;;;;;;;;;;;;;;;;4976208;28;7053;-84
2022/10/04 06:24:57;;;;;;;;;;;;;;;;;;4976362;28;8350;-82
2022/10/04 06:27:25;;;;;;;;;;;;;;;;;;4976305;28;8561;-82
2022/10/04 06:30:11;;;;;;;;;;;;;;;;;;4976718;28;8611;-84
2022/10/04 06:32:57;;;;;;;;;;;;;;;;;;4992007;28;7271;-84
2022/10/04 06:35:34;;;;;;;;;;;;;;;;;;4991047;28;8414;-84
2022/10/04 06:38:16;;;;;;;;;;;;;;;;;;4976791;28;7166;-82
2022/10/04 06:40:51;;;;;;;;;;;;;;;;;;4975789;28;7157;-84
2022/10/04 06:43:27;;;;;;;;;;;;;;;;;;4975894;28;7159;-84
2022/10/04 06:46:07;;;;;;;;;;;;;;;;;;4976325;28;8309;-85
2022/10/04 06:48:51;;;;;;;;;;;;;;;;;;4976444;28;8590;-84
2022/10/04 06:51:28;;;;;;;;;;;;;;;;;;4975758;28;7245;-85
2022/10/04 06:54:14;;;;;;;;;;;;;;;;;;4975982;28;7626;-86
2022/10/04 06:56:48;;;;;;;;;;;;;;;;;;4975945;28;7137;-85
2022/10/04 06:59:37;;;;;;;;;;;;;;;;;;4975838;28;8839;-85
2022/10/04 07:02:12;;;;;;;;;;;;;;;;;;4991361;28;8408;-85
2022/10/04 07:04:56;;;;;;;;;;;;;;;;;;4975519;28;8391;-83
2022/10/04 07:07:46;;;;;;;;;;;;;;;;;;4976389;28;8309;-84
2022/10/04 07:10:07;;;;;;;;;;;;;;;;;;4981274;28;6953;-84
2022/10/04 07:12:38;;;;;;;;;;;;;;;;;;4978109;28;7390;-84
2022/10/04 07:15:15;;;;;;;;;;;;;;;;;;4978281;28;8540;-84
2022/10/04 07:17:45;;;;;;;;;;;;;;;;;;4977879;28;6822;-84
2022/10/04 07:20:24;;;;;;;;;;;;;;;;;;4976601;28;8800;-82
2022/10/04 07:23:04;;;;;;;;;;;;;;;;;;4977227;28;7167;-83
2022/10/04 07:25:43;;;;;;;;;;;;;;;;;;4977719;28;8336;-84
2022/10/04 07:31:02;;;;;;;;;;;;;;;;;;4994372;28;6753;-84
2022/10/04 07:33:31;;;;;;;;;;;;;;;;;;4976704;28;8577;-82
2022/10/04 07:36:08;;;;;;;;;;;;;;;;;;4977334;28;8638;-86
2022/10/04 07:38:42;;;;;;;;;;;;;;;;;;4977231;28;7046;-84
2022/10/04 07:41:20;;;;;;;;;;;;;;;;;;4976972;28;7874;-84
2022/10/04 07:43:55;;;;;;;;;;;;;;;;;;4976921;28;7062;-84
2022/10/04 07:46:36;;;;;;;;;;;;;;;;;;4976795;28;7162;-84
2022/10/04 07:49:01;;;;;;;;;;;;;;;;;;4977845;28;8620;-85
2022/10/04 07:51:40;;;;;;;;;;;;;;;;;;4977093;28;7125;-84
2022/10/04 07:54:22;;;;;;;;;;;;;;;;;;4977691;28;7051;-85
2022/10/04 07:56:56;;;;;;;;;;;;;;;;;;4977447;28;8431;-85
2022/10/04 07:59:31;;;;;;;;;;;;;;;;;;4977444;28;8589;-85
2022/10/04 08:02:06;;;;;;;;;;;;;;;;;;4977470;28;7259;-86
2022/10/04 08:04:50;;;;;;;;;;;;;;;;;;4977647;28;8425;-85
2022/10/04 08:07:15;;;;;;;;;;;;;;;;;;4977742;28;8318;-86
2022/10/04 08:09:56;;;;;;;;;;;;;;;;;;4935556;28;1208351;-86
2022/10/04 08:12:41;;;;;;;;;;;;;;;;;;4978552;28;7176;-84
2022/10/04 08:15:12;;;;;;;;;;;;;;;;;;4978964;28;7152;-86
2022/10/04 08:17:50;;;;;;;;;;;;;;;;;;4982138;28;9337;-86
2022/10/04 08:20:34;;;;;;;;;;;;;;;;;;4981998;28;7024;-86
2022/10/04 08:23:08;;;;;;;;;;;;;;;;;;4982610;28;8461;-85
2022/10/04 08:25:37;;;;;;;;;;;;;;;;;;4966356;28;7330;-86
2022/10/04 08:31:16;;;;;;;;;;;;;;;;;;4998760;28;6807;-86
2022/10/04 08:33:51;;;;;;;;;;;;;;;;;;4979108;28;6901;-85
2022/10/04 08:36:16;;;;;;;;;;;;;;;;;;4967406;28;8346;-85
2022/10/04 08:38:43;;;;;;;;;;;;;;;;;;4971052;28;8611;-86
2022/10/04 08:41:23;;;;;;;;;;;;;;;;;;4972442;28;7050;-84
2022/10/04 08:44:09;;;;;;;;;;;;;;;;;;4962188;28;8476;-84
2022/10/04 08:46:54;;;;;;;;;;;;;;;;;;4977810;28;7082;-84
2022/10/04 08:49:29;;;;;;;;;;;;;;;;;;4979561;28;8527;-84
2022/10/04 08:52:11;;;;;;;;;;;;;;;;;;4988202;28;8665;-77
2022/10/04 08:54:43;;;;;;;;;;;;;;;;;;4982286;28;8691;-84
2022/10/04 08:57:17;;;;;;;;;;;;;;;;;;4980913;28;8507;-85
2022/10/04 09:00:03;;;;;;;;;;;;;;;;;;4981721;28;8434;-84
2022/10/04 09:02:28;;;;;;;;;;;;;;;;;;4981244;28;7060;-84
2022/10/04 09:05:14;;;;;;;;;;;;;;;;;;4980778;28;8300;-85
2022/10/04 09:07:56;;;;;;;;;;;;;;;;;;4977441;28;7198;-85
2022/10/04 09:10:41;;;;;;;;;;;;;;;;;;4980701;28;8462;-85
2022/10/04 09:13:25;;;;;;;;;;;;;;;;;;4981009;28;7180;-85
2022/10/04 09:15:50;;;;;;;;;;;;;;;;;;4981145;28;8508;-83
2022/10/04 09:18:36;;;;;;;;;;;;;;;;;;4980669;28;8721;-83
2022/10/04 09:21:09;;;;;;;;;;;;;;;;;;4981121;28;8314;-86
2022/10/04 09:23:48;;;;;;;;;;;;;;;;;;4980873;28;8445;-83
2022/10/04 09:26:36;;;;;;;;;;;;;;;;;;4980603;28;7202;-85
2022/10/04 09:29:13;;;;;;;;;;;;;;;;;;4981216;28;8447;-85
2022/10/04 09:31:42;;;;;;;;;;;;;;;;;;4980135;28;7080;-83
2022/10/04 09:34:33;;;;;;;;;;;;;;;;;;4980716;28;8449;-84
2022/10/04 09:37:10;;;;;;;;;;;;;;;;;;4980334;28;7620;-84
2022/10/04 09:39:59;;;;;;;;;;;;;;;;;;4980345;28;7193;-85
2022/10/04 09:42:44;;;;;;;;;;;;;;;;;;4981067;28;7226;-84
2022/10/04 09:45:09;;;;;;;;;;;;;;;;;;4980533;28;8364;-84
2022/10/04 09:47:53;;;;;;;;;;;;;;;;;;4980089;28;8548;-84
2022/10/04 09:50:25;;;;;;;;;;;;;;;;;;4980772;28;7070;-84
2022/10/04 09:53:09;;;;;;;;;;;;;;;;;;4979851;28;7204;-86
2022/10/04 09:55:35;;;;;;;;;;;;;;;;;;4980322;28;8426;-84
2022/10/04 09:58:16;;;;;;;;;;;;;;;;;;4980118;28;8916;-84
2022/10/04 10:01:05;;;;;;;;;;;;;;;;;;4979904;28;8525;-84
2022/10/04 10:03:49;;;;;;;;;;;;;;;;;;4977108;28;7286;-84
2022/10/04 10:06:15;;;;;;;;;;;;;;;;;;4979796;28;7060;-85
2022/10/04 10:08:54;;;;;;;;;;;;;;;;;;4980005;28;8753;-79
2022/10/04 10:14:32;;;;;;;;;;;;;;;;;;4977356;28;6719;-83
2022/10/04 10:17:04;;;;;;;;;;;;;;;;;;4976169;28;7069;-85
2022/10/04 10:19:39;;;;;;;;;;;;;;;;;;4976508;28;7769;-85
2022/10/04 10:22:27;;;;;;;;;;;;;;;;;;4976453;28;8617;-85
2022/10/04 10:25:12;;;;;;;;;;;;;;;;;;4976213;28;7117;-84
2022/10/04 10:27:38;;;;;;;;;;;;;;;;;;4976674;28;8472;-85
2022/10/04 10:30:03;;;;;;;;;;;;;;;;;;4976249;28;7101;-85
2022/10/04 10:32:35;;;;;;;;;;;;;;;;;;4976539;28;7242;-85
2022/10/04 10:35:19;;;;;;;;;;;;;;;;;;4976452;28;8744;-85
2022/10/04 10:38:23;;;;;;;;;;;;;;;;;;4975922;28;8500;-85
2022/10/04 10:41:06;;;;;;;;;;;;;;;;;;4976208;28;8367;-85
2022/10/04 10:43:32;;;;;;;;;;;;;;;;;;4975843;28;7418;-84
2022/10/04 10:46:06;;;;;;;;;;;;;;;;;;4976606;28;8539;-85
2022/10/04 10:48:52;;;;;;;;;;;;;;;;;;4975818;28;7268;-86
2022/10/04 10:51:35;;;;;;;;;;;;;;;;;;4991511;28;8428;-86
2022/10/04 10:54:09;;;;;;;;;;;;;;;;;;4975602;28;7177;-84
2022/10/04 10:56:55;;;;;;;;;;;;;;;;;;4975522;28;8615;-85
2022/10/04 10:59:30;;;;;;;;;;;;;;;;;;4975419;28;8686;-85
2022/10/04 11:02:00;;;;;;;;;;;;;;;;;;4976067;28;8460;-84
2022/10/04 11:04:33;;;;;;;;;;;;;;;;;;4975918;28;7301;-85
2022/10/04 11:07:19;;;;;;;;;;;;;;;;;;4975352;28;8452;-85
2022/10/04 11:09:44;;;;;;;;;;;;;;;;;;4977750;28;8462;-85
2022/10/04 11:12:10;;;;;;;;;;;;;;;;;;4977726;28;7048;-86
2022/10/04 11:14:42;;;;;;;;;;;;;;;;;;4978128;28;9546;-85
2022/10/04 11:17:14;;;;;;;;;;;;;;;;;;4978292;28;9171;-85
2022/10/04 11:19:51;;;;;;;;;;;;;;;;;;4978386;28;8441;-85
2022/10/04 11:22:17;;;;;;;;;;;;;;;;;;4978558;28;8796;-84
2022/10/04 11:25:01;;;;;;;;;;;;;;;;;;4978443;28;7397;-84
2022/10/04 11:27:55;;;;;;;;;;;;;;;;;;4978617;28;8327;-83
2022/10/04 11:30:25;;;;;;;;;;;;;;;;;;4977097;28;7604;-84
2022/10/04 11:32:53;;;;;;;;;;;;;;;;;;4977110;28;8528;-85
2022/10/04 11:35:22;;;;;;;;;;;;;;;;;;4978626;28;8501;-83
2022/10/04 11:37:47;;;;;;;;;;;;;;;;;;4976845;28;8507;-85
2022/10/04 11:40:25;;;;;;;;;;;;;;;;;;4976734;28;8598;-83
2022/10/04 11:43:04;;;;;;;;;;;;;;;;;;4976686;28;6833;-82
2022/10/04 11:45:38;;;;;;;;;;;;;;;;;;4978600;28;7236;-84
2022/10/04 11:48:10;;;;;;;;;;;;;;;;;;4977882;28;7188;-86
2022/10/04 11:50:50;;;;;;;;;;;;;;;;;;4977189;28;7025;-87
2022/10/04 11:53:20;;;;;;;;;;;;;;;;;;4978302;28;7083;-86
2022/10/04 11:55:52;;;;;;;;;;;;;;;;;;4978052;28;7740;-86
2022/10/04 11:58:21;;;;;;;;;;;;;;;;;;4978573;28;8449;-85
2022/10/04 12:00:48;;;;;;;;;;;;;;;;;;4978622;28;7080;-86
2022/10/04 12:03:36;;;;;;;;;;;;;;;;;;4978343;28;7157;-86
2022/10/04 12:06:02;;;;;;;;;;;;;;;;;;4977885;28;7381;-86
2022/10/04 12:08:47;;;;;;;;;;;;;;;;;;4978387;28;7226;-85
2022/10/04 12:12:35;;;;;;;;;;;;;;;;;;4977661;28;7065;-85
2022/10/04 12:14:23;;;;;;;;;;;;;;;;;;4994988;28;6963;-86
2022/10/04 12:17:07;;;;;;;;;;;;;;;;;;4977965;28;7090;-86
2022/10/04 12:19:51;;;;;;;;;;;;;;;;;;4978728;28;7072;-86
2022/10/04 12:22:35;;;;;;;;;;;;;;;;;;4978139;28;8930;-86
2022/10/04 12:25:25;;;;;;;;;;;;;;;;;;4977607;28;8363;-86
2022/10/04 12:27:57;;;;;;;;;;;;;;;;;;4975184;28;7270;-86
2022/10/04 12:30:32;;;;;;;;;;;;;;;;;;4977649;28;7089;-87
2022/10/04 12:33:16;;;;;;;;;;;;;;;;;;4978342;28;8328;-87
2022/10/04 12:35:42;;;;;;;;;;;;;;;;;;4977676;28;8419;-86
2022/10/04 12:38:26;;;;;;;;;;;;;;;;;;4978292;28;7168;-86
2022/10/04 12:41:10;;;;;;;;;;;;;;;;;;4978400;28;8686;-86
2022/10/04 12:43:39;;;;;;;;;;;;;;;;;;4977593;28;7452;-86
2022/10/04 12:46:19;;;;;;;;;;;;;;;;;;4978414;28;8744;-85
2022/10/04 12:48:47;;;;;;;;;;;;;;;;;;4978111;28;8957;-86
2022/10/04 12:51:36;;;;;;;;;;;;;;;;;;4978036;28;7053;-85
2022/10/04 12:54:26;;;;;;;;;;;;;;;;;;4978720;28;7074;-85
2022/10/04 12:57:12;;;;;;;;;;;;;;;;;;4974753;28;8845;-85
2022/10/04 12:59:56;;;;;;;;;;;;;;;;;;4977315;28;8525;-87
2022/10/04 13:02:25;;;;;;;;;;;;;;;;;;4979731;28;8587;-86
2022/10/04 13:04:59;;;;;;;;;;;;;;;;;;4980856;28;8433;-86
2022/10/04 13:07:25;;;;;;;;;;;;;;;;;;4981078;28;7073;-87
2022/10/04 13:10:09;;;;;;;;;;;;;;;;;;4980526;28;7179;-86
2022/10/04 13:12:54;;;;;;;;;;;;;;;;;;4980765;28;8368;-86
2022/10/04 13:15:28;;;;;;;;;;;;;;;;;;4980835;28;8763;-87
2022/10/04 13:18:03;;;;;;;;;;;;;;;;;;4980661;28;7211;-85
2022/10/04 13:20:31;;;;;;;;;;;;;;;;;;4980881;28;7274;-86
2022/10/04 13:23:23;;;;;;;;;;;;;;;;;;4981017;28;8477;-86
2022/10/04 13:25:55;;;;;;;;;;;;;;;;;;4972822;28;8509;-86
2022/10/04 13:28:30;;;;;;;;;;;;;;;;;;4980762;28;7059;-85
2022/10/04 13:31:09;;;;;;;;;;;;;;;;;;4980168;28;7176;-85
2022/10/04 13:33:37;;;;;;;;;;;;;;;;;;4981153;28;7184;-84
2022/10/04 13:36:06;;;;;;;;;;;;;;;;;;4980840;28;7439;-84
2022/10/04 13:38:31;;;;;;;;;;;;;;;;;;4980579;28;7059;-85
2022/10/04 13:41:09;;;;;;;;;;;;;;;;;;4980403;28;7168;-88
2022/10/04 13:43:54;;;;;;;;;;;;;;;;;;4980204;28;8772;-87
2022/10/04 13:46:38;;;;;;;;;;;;;;;;;;4980334;28;8633;-86
2022/10/04 13:49:26;;;;;;;;;;;;;;;;;;4980021;28;8351;-86
2022/10/04 13:58:08;;;;;;;;;;;;;;;;;;4997961;28;6821;-84
2022/10/04 14:00:37;;;;;;;;;;;;;;;;;;4980762;28;7202;-86
2022/10/04 14:03:19;;;;;;;;;;;;;;;;;;4980109;28;7248;-86
2022/10/04 14:06:03;;;;;;;;;;;;;;;;;;4980622;28;8523;-86
2022/10/04 14:08:45;;;;;;;;;;;;;;;;;;4980044;28;7006;-86
2022/10/04 14:11:20;;;;;;;;;;;;;;;;;;4976003;28;7218;-86
2022/10/04 14:13:47;;;;;;;;;;;;;;;;;;4975643;28;8364;-85
2022/10/04 14:16:33;;;;;;;;;;;;;;;;;;4976136;28;7446;-85
2022/10/04 14:19:02;;;;;;;;;;;;;;;;;;4976786;28;7250;-83
2022/10/04 14:21:47;;;;;;;;;;;;;;;;;;4975796;28;7387;-85
2022/10/04 14:24:32;;;;;;;;;;;;;;;;;;4976322;28;8785;-86
2022/10/04 14:27:15;;;;;;;;;;;;;;;;;;4976460;28;7076;-86
2022/10/04 14:29:59;;;;;;;;;;;;;;;;;;4975957;28;7107;-85
2022/10/04 14:32:37;;;;;;;;;;;;;;;;;;4975851;28;8519;-84
2022/10/04 14:35:03;;;;;;;;;;;;;;;;;;4976053;28;8369;-85
2022/10/04 14:37:35;;;;;;;;;;;;;;;;;;4976141;28;7342;-85
2022/10/04 14:40:19;;;;;;;;;;;;;;;;;;4975313;28;8950;-85
2022/10/04 14:43:04;;;;;;;;;;;;;;;;;;4976074;28;7189;-86
2022/10/04 14:45:48;;;;;;;;;;;;;;;;;;4976454;28;7144;-85
2022/10/04 14:48:23;;;;;;;;;;;;;;;;;;4967416;28;8750;-87
2022/10/04 14:50:48;;;;;;;;;;;;;;;;;;4990388;28;7216;-86
2022/10/04 14:53:13;;;;;;;;;;;;;;;;;;4975290;28;7075;-86
2022/10/04 14:55:56;;;;;;;;;;;;;;;;;;4975760;28;7088;-88
2022/10/04 14:58:39;;;;;;;;;;;;;;;;;;4992284;28;7282;-87
2022/10/04 15:01:11;;;;;;;;;;;;;;;;;;4976356;28;8461;-87
2022/10/04 15:03:55;;;;;;;;;;;;;;;;;;4976453;28;7553;-89
2022/10/04 15:06:22;;;;;;;;;;;;;;;;;;4976991;28;7254;-87
2022/10/04 15:09:06;;;;;;;;;;;;;;;;;;4975325;28;7472;-87
2022/10/04 15:11:35;;;;;;;;;;;;;;;;;;4975150;28;8470;-87
2022/10/04 15:14:04;;;;;;;;;;;;;;;;;;4976522;28;8433;-87
2022/10/04 15:16:42;;;;;;;;;;;;;;;;;;4992145;28;8494;-87
2022/10/04 15:19:23;;;;;;;;;;;;;;;;;;4992299;28;8521;-87
2022/10/04 15:21:54;;;;;;;;;;;;;;;;;;4993224;28;8527;-88
2022/10/04 15:24:22;;;;;;;;;;;;;;;;;;4976130;28;7411;-87
2022/10/04 15:27:17;;;;;;;;;;;;;;;;;;4976247;28;7275;-86
2022/10/04 15:29:46;;;;;;;;;;;;;;;;;;4992533;28;8417;-88
2022/10/04 15:32:35;;;;;;;;;;;;;;;;;;4971749;28;8461;-85
2022/10/04 15:35:10;;;;;;;;;;;;;;;;;;4991290;28;8399;-86
2022/10/04 15:37:43;;;;;;;;;;;;;;;;;;4974774;28;7059;-85
2022/10/04 15:40:17;;;;;;;;;;;;;;;;;;4991080;28;8526;-84
2022/10/04 15:43:02;;;;;;;;;;;;;;;;;;4974929;28;8623;-84
2022/10/04 15:45:47;;;;;;;;;;;;;;;;;;4977819;28;7095;-80
2022/10/04 15:48:31;;;;;;;;;;;;;;;;;;4991487;28;7059;-85
2022/10/04 15:51:00;;;;;;;;;;;;;;;;;;4974884;28;8856;-85
2022/10/04 15:53:25;;;;;;;;;;;;;;;;;;4974111;28;8735;-85
2022/10/04 15:56:03;;;;;;;;;;;;;;;;;;4974716;28;8469;-85
2022/10/04 15:58:40;;;;;;;;;;;;;;;;;;4974988;28;7064;-87
2022/10/04 16:01:12;;;;;;;;;;;;;;;;;;4974668;28;8663;-86
2022/10/04 16:03:56;;;;;;;;;;;;;;;;;;4974319;28;8459;-87
2022/10/04 16:06:25;;;;;;;;;;;;;;;;;;4974271;28;8963;-86
2022/10/04 16:09:03;;;;;;;;;;;;;;;;;;4990927;28;7406;-86
2022/10/04 16:11:28;;;;;;;;;;;;;;;;;;4974718;28;8758;-78
2022/10/04 16:14:05;;;;;;;;;;;;;;;;;;4977831;28;8493;-86
2022/10/04 16:16:52;;;;;;;;;;;;;;;;;;5010428;28;7142;-86
2022/10/04 16:19:20;;;;;;;;;;;;;;;;;;5010305;28;7056;-87
2022/10/04 16:21:46;;;;;;;;;;;;;;;;;;5010253;28;8431;-87
2022/10/04 16:24:20;;;;;;;;;;;;;;;;;;5010553;28;7151;-87
2022/10/04 16:26:49;;;;;;;;;;;;;;;;;;5010336;28;7185;-85
2022/10/04 16:29:43;;;;;;;;;;;;;;;;;;5009449;28;7192;-82
2022/10/04 16:32:15;;;;;;;;;;;;;;;;;;5008864;28;7059;-83
2022/10/04 16:34:55;;;;;;;;;;;;;;;;;;5008542;28;8450;-83
2022/10/04 16:37:33;;;;;;;;;;;;;;;;;;5010577;28;8474;-85
2022/10/04 16:40:08;;;;;;;;;;;;;;;;;;5012475;28;7160;-86
2022/10/04 16:42:45;;;;;;;;;;;;;;;;;;5012526;28;7007;-86
2022/10/04 16:45:13;;;;;;;;;;;;;;;;;;5013757;28;8448;-88
2022/10/04 16:47:54;;;;;;;;;;;;;;;;;;5013894;28;8469;-86
2022/10/04 16:50:38;;;;;;;;;;;;;;;;;;5013935;28;7155;-87
2022/10/04 16:53:22;;;;;;;;;;;;;;;;;;5013915;28;7042;-87
2022/10/04 16:55:54;;;;;;;;;;;;;;;;;;5014283;28;7158;-86
2022/10/04 16:58:26;;;;;;;;;;;;;;;;;;5013883;28;8336;-86
2022/10/04 17:01:11;;;;;;;;;;;;;;;;;;5013981;28;8750;-86
2022/10/04 17:03:45;;;;;;;;;;;;;;;;;;5014016;28;7226;-87
2022/10/04 17:06:15;;;;;;;;;;;;;;;;;;5013550;28;8454;-85
2022/10/04 17:08:43;;;;;;;;;;;;;;;;;;5014284;28;7089;-85
2022/10/04 17:11:27;;;;;;;;;;;;;;;;;;5013680;28;8548;-86
2022/10/04 17:13:56;;;;;;;;;;;;;;;;;;5013326;28;7172;-86
2022/10/04 17:16:31;;;;;;;;;;;;;;;;;;5013643;28;8902;-86
2022/10/04 17:19:15;;;;;;;;;;;;;;;;;;5013484;28;8432;-84
2022/10/04 17:22:03;;;;;;;;;;;;;;;;;;5013582;28;8436;-86
2022/10/04 17:24:38;;;;;;;;;;;;;;;;;;5013365;28;8543;-85
2022/10/04 17:27:22;;;;;;;;;;;;;;;;;;5013594;28;8478;-88
2022/10/04 17:29:53;;;;;;;;;;;;;;;;;;5013103;28;7191;-85
2022/10/04 17:32:26;;;;;;;;;;;;;;;;;;5013748;28;8558;-85
2022/10/04 17:34:58;;;;;;;;;;;;;;;;;;5013247;28;7184;-85
2022/10/04 17:37:47;;;;;;;;;;;;;;;;;;5013153;28;8790;-86
2022/10/04 17:40:15;;;;;;;;;;;;;;;;;;5009890;28;9397;-85
2022/10/04 17:42:41;;;;;;;;;;;;;;;;;;5013386;28;8076;-85
2022/10/04 17:45:15;;;;;;;;;;;;;;;;;;5013777;28;8738;-85
2022/10/04 17:56:33;;;;;;;;;;;;;;;;;;4997699;28;6807;-85
2022/10/04 17:59:06;;;;;;;;;;;;;;;;;;5012903;28;8455;-83
2022/10/04 18:01:36;;;;;;;;;;;;;;;;;;5012656;28;7282;-85
2022/10/04 18:04:38;;;;;;;;;;;;;;;;;;5012727;28;8749;-85
2022/10/04 18:07:15;;;;;;;;;;;;;;;;;;4995654;28;7188;-84
2022/10/04 18:09:43;;;;;;;;;;;;;;;;;;4994988;28;9098;-84
2022/10/04 18:12:27;;;;;;;;;;;;;;;;;;4995396;28;8426;-84
2022/10/04 18:14:55;;;;;;;;;;;;;;;;;;4979352;28;7487;-85
2022/10/04 18:17:27;;;;;;;;;;;;;;;;;;4995327;28;8446;-85
2022/10/04 18:20:01;;;;;;;;;;;;;;;;;;4995457;28;8430;-83
2022/10/04 18:22:28;;;;;;;;;;;;;;;;;;4995168;28;7163;-85